Desoto, Indiana
Current Conditions -  °F | °C
As of 6:53 PM on Wednesday 28 Jan 2015 (Local Time) from KMIE Reporting Station
Clear Clear  
Wind Chill: 22°   Ceiling: Unl
Heat Index: 30°   Visibility: 9mi
Dew Point: 20°   Wind: 9mph
Humidity: 66%   Direction: 140°SE
Pressure: 30.16"   Gusts: NA
Location:  40.2763°N, 85.3769°W
Report Text: KMIE 282353Z 14008KT 9SM CLR M01/M07 A3016 RMK AO2 SLP226 T10111067 11006 21022 56021
Loading
Personal Weather Stations






























Interactive Weather Map New forecast layout! Learn more

10-Day Weather Forecast

Advertisements
Track Severe Weather on mobile